CheckWX is a tool to help pilots better visualize weather data.  It is not intended as a substitute for an official pre-flight weather briefing.

07:00:08 UTC

LFPG METAR
Charles de Gaulle International Airport
Paris, France
Current

30 mins ago

LFPG 120630Z 02011KT CAVOK 14/10 Q1027 NOSIG
Observed
Jul-12 @ 06:30 UTC
Wind
  • 020° at 11 KTS
Visibility
10,000+ meters
Flight Rules
VFR
Cloud Levels
  • Clear skies
Temperature
14°C / 57°F
Dewpoint
10°C / 50°F
Humidity
77%
Altimeter
30.32" Hg
Pressure
1026.92 hPa
Previous

60 mins ago

LFPG 120600Z 02011KT CAVOK 13/09 Q1027 NOSIG
Observed
Jul-12 @ 06:00 UTC
Wind
  • 020° at 11 KTS
Visibility
10,000+ meters
Flight Rules
VFR
Cloud Levels
  • Clear skies
Temperature
13°C / 55°F
Dewpoint
C / 48°F
Humidity
77%
Altimeter
30.32" Hg
Pressure
1026.92 hPa
Previous

2 hours ago

LFPG 120530Z 02008KT CAVOK 13/09 Q1027 NOSIG
Observed
Jul-12 @ 05:30 UTC
Wind
  • 020° at 8 KTS
Visibility
10,000+ meters
Flight Rules
VFR
Cloud Levels
  • Clear skies
Temperature
13°C / 55°F
Dewpoint
C / 48°F
Humidity
77%
Altimeter
30.32" Hg
Pressure
1026.92 hPa